Flight Track Log - Related Links

Times and Time Zones

All times are in EDT time to prevent confusion due to time zone crossing. See the AIE846 flight status page for this flight to view local times or setup timezone preferences in your user account.

Time Position Orientation Groundspeed Altitude Reporting Facility
EDT Latitude Longitude Course Direction KTS MPH feet Rate Location/Type
Tue 10:36:19 AM 50.2667 -66.2833 342° North 140 161 3,000  Level Montreal Center
Tue 10:37:19 AM 50.3000 -66.2833 360° North 160 184 4,100 1,250 Climbing Montreal Center
Tue 10:38:19 AM 50.3500 -66.2667 12° North 180 207 5,500 1,400 Climbing Montreal Center
Tue 10:39:19 AM 50.4000 -66.2833 348° North 180 207 6,900 1,350 Climbing Montreal Center
Tue 10:40:00 AM 50.5709 -66.3292 355° North  Level FlightAware Approximate
Tue 10:40:19 AM 50.4500 -66.2667 12° North 190 219 8,200  Level Montreal Center
Tue 10:41:19 AM 50.5167 -66.2833 351° North 190 219 9,500 1,250 Climbing Montreal Center
Tue 10:42:19 AM 50.5667 -66.3000 348° North 200 230 10,700 1,150 Climbing Montreal Center
Tue 10:43:19 AM 50.6333 -66.3167 351° North 200 230 11,800 1,100 Climbing Montreal Center
Tue 10:44:19 AM 50.6833 -66.3333 348° North 200 230 12,900 1,000 Climbing Montreal Center
Tue 10:45:19 AM 50.7500 -66.3500 351° North 200 230 13,800 800 Climbing Montreal Center
Tue 10:46:19 AM 50.8000 -66.3667 348° North 210 242 14,500 750 Climbing Montreal Center
Tue 10:47:19 AM 50.8500 -66.3500 12° North 210 242 15,300 700 Climbing Montreal Center
Tue 10:48:19 AM 50.9167 -66.3667 351° North 220 253 15,900 700 Climbing Montreal Center
Tue 10:49:19 AM 50.9667 -66.3833 348° North 220 253 16,700 700 Climbing Montreal Center
Tue 10:50:19 AM 51.0333 -66.3833 360° North 220 253 17,300 750 Climbing Montreal Center
Tue 10:51:19 AM 51.0833 -66.4000 348° North 220 253 18,200 850 Climbing Montreal Center
Tue 10:52:19 AM 51.1667 -66.4167 353° North 220 253 19,000 400 Climbing Montreal Center
Tue 10:53:19 AM 51.2167 -66.4333 348° North 220 253 19,000  Level Montreal Center
Tue 10:54:19 AM 51.2833 -66.4500 351° North 230 265 19,000  Level Montreal Center
Tue 10:55:19 AM 51.3500 -66.4667 351° North 240 276 19,000  Level Montreal Center
Tue 10:56:19 AM 51.4167 -66.4667 360° North 250 288 19,000  Level Montreal Center
Tue 10:57:19 AM 51.4833 -66.4833 351° North 260 299 19,000 -250 Level Montreal Center
Tue 10:58:19 AM 51.5667 -66.5000 353° North 260 299 18,500 -650 Descending Montreal Center
Tue 10:59:19 AM 51.6500 -66.5333 346° North 280 322 17,700 -650 Descending Montreal Center
Tue 11:00:19 AM 51.7333 -66.5500 353° North 290 334 17,200 -550 Descending Montreal Center
Tue 11:01:19 AM 51.8167 -66.5500 360° North 290 334 16,600 -600 Descending Montreal Center
Tue 11:02:19 AM 51.8833 -66.6000 335° Northwest 300 345 16,000 -750 Descending Montreal Center
Tue 11:03:19 AM 51.9833 -66.6000 360° North 300 345 15,100 -850 Descending Montreal Center
Tue 11:04:19 AM 52.0500 -66.6167 351° North 300 345 14,300 -800 Descending Montreal Center
Tue 11:06:00 AM 52.1483 -66.6575 346° North  Level FlightAware Approximate
Tue 11:13:00 AM 52.5656 -66.7676 352° North  Level FlightAware Approximate
Tue 11:14:00 AM 52.6252 -66.7815 352° North  Level FlightAware Approximate
Tue 11:15:00 AM 52.6850 -66.7936 353° North  Level FlightAware Approximate
Tue 11:16:00 AM 52.7449 -66.8056 353° North  Level FlightAware Approximate
Tue 11:17:00 AM 52.8047 -66.8176 353° North  Level FlightAware Approximate
Tue 11:18:00 AM 52.8645 -66.8296 353° North  Level FlightAware Approximate
Tue 11:19:00 AM 52.9241 -66.8435 351° North  Level FlightAware Approximate
Tue 11:20:00 AM 52.9167 -66.8500 180° South  Level FlightAware Approximate
Tue 11:21:00 AM 52.9219 -66.8644 180° South  Level Estimated
Tue 11:22:00 AM 52.9219 -66.8644 180° South  Level Estimated
Tue 11:23:00 AM 52.9219 -66.8644 180° South  Level Estimated

Login

Don't have an account? Register now (free) for customized features, flight alerts, and more!